sensor_id;sensor_type;location;lat;lon;timestamp;P1;durP1;ratioP1;P2;durP2;ratioP2
63346;SDS011;49472;49.880;8.650;2022-07-22T00:00:22;21.95;;;19.98;;
63346;SDS011;49472;49.880;8.650;2022-07-22T00:02:48;22.25;;;20.17;;
63346;SDS011;49472;49.880;8.650;2022-07-22T00:05:13;21.98;;;20.10;;
63346;SDS011;49472;49.880;8.650;2022-07-22T00:07:38;21.40;;;19.60;;
63346;SDS011;49472;49.880;8.650;2022-07-22T00:10:05;20.38;;;18.52;;
63346;SDS011;49472;49.880;8.650;2022-07-22T00:12:32;20.90;;;19.17;;
63346;SDS011;49472;49.880;8.650;2022-07-22T00:14:57;20.85;;;18.75;;
63346;SDS011;49472;49.880;8.650;2022-07-22T00:17:23;20.27;;;18.67;;
63346;SDS011;49472;49.880;8.650;2022-07-22T00:19:48;20.00;;;18.50;;
63346;SDS011;49472;49.880;8.650;2022-07-22T00:22:14;20.53;;;18.83;;
63346;SDS011;49472;49.880;8.650;2022-07-22T00:24:39;20.30;;;18.63;;
63346;SDS011;49472;49.880;8.650;2022-07-22T00:27:04;20.70;;;19.02;;
63346;SDS011;49472;49.880;8.650;2022-07-22T00:29:30;20.52;;;18.80;;
63346;SDS011;49472;49.880;8.650;2022-07-22T00:31:55;22.60;;;20.08;;
63346;SDS011;49472;49.880;8.650;2022-07-22T00:34:20;21.58;;;19.77;;
63346;SDS011;49472;49.880;8.650;2022-07-22T00:36:46;20.48;;;18.50;;
63346;SDS011;49472;49.880;8.650;2022-07-22T00:39:11;21.08;;;19.20;;
63346;SDS011;49472;49.880;8.650;2022-07-22T00:41:37;21.10;;;18.92;;
63346;SDS011;49472;49.880;8.650;2022-07-22T00:44:03;21.10;;;19.13;;
63346;SDS011;49472;49.880;8.650;2022-07-22T00:46:31;20.77;;;18.90;;
63346;SDS011;49472;49.880;8.650;2022-07-22T00:48:57;21.10;;;18.85;;
63346;SDS011;49472;49.880;8.650;2022-07-22T00:51:23;23.10;;;18.83;;
63346;SDS011;49472;49.880;8.650;2022-07-22T00:53:50;21.40;;;18.40;;
63346;SDS011;49472;49.880;8.650;2022-07-22T00:56:17;20.05;;;18.55;;
63346;SDS011;49472;49.880;8.650;2022-07-22T00:58:44;20.87;;;18.83;;
63346;SDS011;49472;49.880;8.650;2022-07-22T01:01:10;19.02;;;17.42;;
63346;SDS011;49472;49.880;8.650;2022-07-22T01:03:36;24.63;;;19.40;;
63346;SDS011;49472;49.880;8.650;2022-07-22T01:06:02;20.13;;;18.43;;
63346;SDS011;49472;49.880;8.650;2022-07-22T01:08:28;21.27;;;19.30;;
63346;SDS011;49472;49.880;8.650;2022-07-22T01:10:54;19.10;;;17.58;;
63346;SDS011;49472;49.880;8.650;2022-07-22T01:13:20;21.05;;;19.27;;
63346;SDS011;49472;49.880;8.650;2022-07-22T01:15:45;20.60;;;18.30;;
63346;SDS011;49472;49.880;8.650;2022-07-22T01:18:11;21.15;;;19.35;;
63346;SDS011;49472;49.880;8.650;2022-07-22T01:20:36;20.90;;;18.95;;
63346;SDS011;49472;49.880;8.650;2022-07-22T01:23:02;21.63;;;19.43;;
63346;SDS011;49472;49.880;8.650;2022-07-22T01:25:27;20.47;;;18.50;;
63346;SDS011;49472;49.880;8.650;2022-07-22T01:27:53;21.83;;;18.47;;
63346;SDS011;49472;49.880;8.650;2022-07-22T01:30:18;21.03;;;18.90;;
63346;SDS011;49472;49.880;8.650;2022-07-22T01:32:44;20.60;;;18.80;;
63346;SDS011;49472;49.880;8.650;2022-07-22T01:35:09;28.77;;;19.20;;
63346;SDS011;49472;49.880;8.650;2022-07-22T01:37:35;21.53;;;19.33;;
63346;SDS011;49472;49.880;8.650;2022-07-22T01:40:00;23.20;;;20.87;;
63346;SDS011;49472;49.880;8.650;2022-07-22T01:42:25;23.30;;;20.80;;
63346;SDS011;49472;49.880;8.650;2022-07-22T01:44:51;30.88;;;21.55;;
63346;SDS011;49472;49.880;8.650;2022-07-22T01:47:16;28.80;;;22.00;;
63346;SDS011;49472;49.880;8.650;2022-07-22T01:49:42;29.67;;;23.10;;
63346;SDS011;49472;49.880;8.650;2022-07-22T01:52:07;32.57;;;23.10;;
63346;SDS011;49472;49.880;8.650;2022-07-22T01:54:32;27.20;;;22.90;;
63346;SDS011;49472;49.880;8.650;2022-07-22T01:56:58;25.10;;;21.73;;
63346;SDS011;49472;49.880;8.650;2022-07-22T01:59:24;34.33;;;21.67;;
63346;SDS011;49472;49.880;8.650;2022-07-22T02:01:49;24.80;;;21.33;;
63346;SDS011;49472;49.880;8.650;2022-07-22T02:04:14;27.10;;;21.50;;
63346;SDS011;49472;49.880;8.650;2022-07-22T02:06:40;27.63;;;22.30;;
63346;SDS011;49472;49.880;8.650;2022-07-22T02:09:05;30.00;;;23.20;;
63346;SDS011;49472;49.880;8.650;2022-07-22T02:11:31;28.30;;;22.27;;
63346;SDS011;49472;49.880;8.650;2022-07-22T02:13:57;25.30;;;22.50;;
63346;SDS011;49472;49.880;8.650;2022-07-22T02:16:22;30.10;;;23.17;;
63346;SDS011;49472;49.880;8.650;2022-07-22T02:18:47;24.93;;;21.53;;
63346;SDS011;49472;49.880;8.650;2022-07-22T02:21:13;23.80;;;21.20;;
63346;SDS011;49472;49.880;8.650;2022-07-22T02:23:38;22.87;;;20.50;;
63346;SDS011;49472;49.880;8.650;2022-07-22T02:26:04;23.30;;;21.10;;
63346;SDS011;49472;49.880;8.650;2022-07-22T02:28:29;23.92;;;21.40;;
63346;SDS011;49472;49.880;8.650;2022-07-22T02:30:55;22.67;;;20.40;;
63346;SDS011;49472;49.880;8.650;2022-07-22T02:33:20;23.40;;;21.17;;
63346;SDS011;49472;49.880;8.650;2022-07-22T02:35:45;21.93;;;19.70;;
63346;SDS011;49472;49.880;8.650;2022-07-22T02:38:11;23.90;;;21.50;;
63346;SDS011;49472;49.880;8.650;2022-07-22T02:40:36;21.40;;;19.37;;
63346;SDS011;49472;49.880;8.650;2022-07-22T02:43:02;23.83;;;21.17;;
63346;SDS011;49472;49.880;8.650;2022-07-22T02:45:31;21.83;;;20.03;;
63346;SDS011;49472;49.880;8.650;2022-07-22T02:47:56;22.53;;;20.20;;
63346;SDS011;49472;49.880;8.650;2022-07-22T02:50:22;27.43;;;21.83;;
63346;SDS011;49472;49.880;8.650;2022-07-22T02:52:48;23.10;;;20.60;;
63346;SDS011;49472;49.880;8.650;2022-07-22T02:55:13;23.13;;;20.70;;
63346;SDS011;49472;49.880;8.650;2022-07-22T02:57:39;25.30;;;19.50;;
63346;SDS011;49472;49.880;8.650;2022-07-22T03:00:08;23.00;;;20.70;;
63346;SDS011;49472;49.880;8.650;2022-07-22T03:02:35;22.07;;;19.93;;
63346;SDS011;49472;49.880;8.650;2022-07-22T03:05:01;22.93;;;20.73;;
63346;SDS011;49472;49.880;8.650;2022-07-22T03:07:27;22.97;;;20.07;;
63346;SDS011;49472;49.880;8.650;2022-07-22T03:09:53;22.63;;;20.53;;
63346;SDS011;49472;49.880;8.650;2022-07-22T03:12:18;22.50;;;20.40;;
63346;SDS011;49472;49.880;8.650;2022-07-22T03:14:43;22.67;;;20.23;;
63346;SDS011;49472;49.880;8.650;2022-07-22T03:17:10;23.00;;;20.67;;
63346;SDS011;49472;49.880;8.650;2022-07-22T03:19:35;23.53;;;21.17;;
63346;SDS011;49472;49.880;8.650;2022-07-22T03:22:01;22.97;;;20.97;;
63346;SDS011;49472;49.880;8.650;2022-07-22T03:24:26;22.50;;;20.40;;
63346;SDS011;49472;49.880;8.650;2022-07-22T03:26:52;21.83;;;19.60;;
63346;SDS011;49472;49.880;8.650;2022-07-22T03:29:17;23.80;;;21.47;;
63346;SDS011;49472;49.880;8.650;2022-07-22T03:31:42;21.97;;;19.83;;
63346;SDS011;49472;49.880;8.650;2022-07-22T03:34:08;23.53;;;20.47;;
63346;SDS011;49472;49.880;8.650;2022-07-22T03:36:33;23.30;;;21.00;;
63346;SDS011;49472;49.880;8.650;2022-07-22T03:38:59;24.27;;;22.03;;
63346;SDS011;49472;49.880;8.650;2022-07-22T03:41:24;21.90;;;20.20;;
63346;SDS011;49472;49.880;8.650;2022-07-22T03:43:49;23.23;;;20.90;;
63346;SDS011;49472;49.880;8.650;2022-07-22T03:46:15;25.03;;;22.83;;
63346;SDS011;49472;49.880;8.650;2022-07-22T03:48:40;23.70;;;21.47;;
63346;SDS011;49472;49.880;8.650;2022-07-22T03:51:05;23.23;;;21.13;;
63346;SDS011;49472;49.880;8.650;2022-07-22T03:53:31;23.93;;;22.00;;
63346;SDS011;49472;49.880;8.650;2022-07-22T03:55:57;21.70;;;19.50;;
63346;SDS011;49472;49.880;8.650;2022-07-22T03:58:23;21.70;;;19.80;;
63346;SDS011;49472;49.880;8.650;2022-07-22T04:00:49;23.93;;;21.20;;
63346;SDS011;49472;49.880;8.650;2022-07-22T04:03:14;22.27;;;19.87;;
63346;SDS011;49472;49.880;8.650;2022-07-22T04:05:40;21.57;;;19.63;;
63346;SDS011;49472;49.880;8.650;2022-07-22T04:08:05;21.83;;;19.90;;
63346;SDS011;49472;49.880;8.650;2022-07-22T04:10:31;23.97;;;21.80;;
63346;SDS011;49472;49.880;8.650;2022-07-22T04:12:56;22.03;;;20.10;;
63346;SDS011;49472;49.880;8.650;2022-07-22T04:15:22;24.37;;;21.87;;
63346;SDS011;49472;49.880;8.650;2022-07-22T04:17:47;22.00;;;20.20;;
63346;SDS011;49472;49.880;8.650;2022-07-22T04:20:13;31.17;;;19.77;;
63346;SDS011;49472;49.880;8.650;2022-07-22T04:22:38;22.43;;;20.23;;
63346;SDS011;49472;49.880;8.650;2022-07-22T04:25:04;22.37;;;20.47;;
63346;SDS011;49472;49.880;8.650;2022-07-22T04:27:30;21.47;;;19.77;;
63346;SDS011;49472;49.880;8.650;2022-07-22T04:29:55;22.53;;;20.57;;
63346;SDS011;49472;49.880;8.650;2022-07-22T04:32:21;22.70;;;20.40;;
63346;SDS011;49472;49.880;8.650;2022-07-22T04:34:47;21.40;;;19.50;;
63346;SDS011;49472;49.880;8.650;2022-07-22T04:37:12;24.23;;;19.73;;
63346;SDS011;49472;49.880;8.650;2022-07-22T04:39:38;22.80;;;20.50;;
63346;SDS011;49472;49.880;8.650;2022-07-22T04:42:03;23.37;;;20.93;;
63346;SDS011;49472;49.880;8.650;2022-07-22T04:44:29;28.07;;;22.47;;
63346;SDS011;49472;49.880;8.650;2022-07-22T04:46:54;23.63;;;21.48;;
63346;SDS011;49472;49.880;8.650;2022-07-22T04:49:19;22.90;;;20.70;;
63346;SDS011;49472;49.880;8.650;2022-07-22T04:51:45;24.93;;;20.97;;
63346;SDS011;49472;49.880;8.650;2022-07-22T04:54:10;22.90;;;20.57;;
63346;SDS011;49472;49.880;8.650;2022-07-22T04:56:35;22.43;;;19.93;;
63346;SDS011;49472;49.880;8.650;2022-07-22T04:59:01;22.10;;;20.20;;
63346;SDS011;49472;49.880;8.650;2022-07-22T05:01:26;21.33;;;19.43;;
63346;SDS011;49472;49.880;8.650;2022-07-22T05:03:51;21.50;;;19.60;;
63346;SDS011;49472;49.880;8.650;2022-07-22T05:06:17;21.90;;;19.90;;
63346;SDS011;49472;49.880;8.650;2022-07-22T05:08:43;21.20;;;19.20;;
63346;SDS011;49472;49.880;8.650;2022-07-22T05:11:08;23.27;;;20.80;;
63346;SDS011;49472;49.880;8.650;2022-07-22T05:13:34;22.23;;;20.23;;
63346;SDS011;49472;49.880;8.650;2022-07-22T05:16:03;21.67;;;19.90;;
63346;SDS011;49472;49.880;8.650;2022-07-22T05:18:29;23.03;;;21.10;;
63346;SDS011;49472;49.880;8.650;2022-07-22T05:20:55;24.13;;;21.83;;
63346;SDS011;49472;49.880;8.650;2022-07-22T05:23:20;23.73;;;21.43;;
63346;SDS011;49472;49.880;8.650;2022-07-22T05:25:45;25.37;;;22.77;;
63346;SDS011;49472;49.880;8.650;2022-07-22T05:28:11;24.37;;;21.90;;
63346;SDS011;49472;49.880;8.650;2022-07-22T05:30:36;23.40;;;21.30;;
63346;SDS011;49472;49.880;8.650;2022-07-22T05:33:02;21.20;;;19.40;;
63346;SDS011;49472;49.880;8.650;2022-07-22T05:35:27;24.90;;;22.80;;
63346;SDS011;49472;49.880;8.650;2022-07-22T05:37:52;26.23;;;23.80;;
63346;SDS011;49472;49.880;8.650;2022-07-22T05:40:18;24.73;;;22.43;;
63346;SDS011;49472;49.880;8.650;2022-07-22T05:42:44;25.20;;;22.70;;
63346;SDS011;49472;49.880;8.650;2022-07-22T05:45:09;32.20;;;23.00;;
63346;SDS011;49472;49.880;8.650;2022-07-22T05:47:35;25.37;;;23.10;;
63346;SDS011;49472;49.880;8.650;2022-07-22T05:50:00;26.13;;;23.43;;
63346;SDS011;49472;49.880;8.650;2022-07-22T05:52:26;24.83;;;22.73;;
63346;SDS011;49472;49.880;8.650;2022-07-22T05:54:51;31.15;;;23.67;;
63346;SDS011;49472;49.880;8.650;2022-07-22T05:57:16;24.53;;;21.90;;
63346;SDS011;49472;49.880;8.650;2022-07-22T05:59:42;24.07;;;21.70;;
63346;SDS011;49472;49.880;8.650;2022-07-22T06:02:07;25.07;;;22.53;;
63346;SDS011;49472;49.880;8.650;2022-07-22T06:04:33;23.43;;;21.33;;
63346;SDS011;49472;49.880;8.650;2022-07-22T06:06:58;23.53;;;21.33;;
63346;SDS011;49472;49.880;8.650;2022-07-22T06:09:24;25.47;;;22.83;;
63346;SDS011;49472;49.880;8.650;2022-07-22T06:11:50;25.43;;;23.23;;
63346;SDS011;49472;49.880;8.650;2022-07-22T06:14:15;24.30;;;22.10;;
63346;SDS011;49472;49.880;8.650;2022-07-22T06:16:41;26.27;;;23.70;;
63346;SDS011;49472;49.880;8.650;2022-07-22T06:19:06;26.60;;;24.00;;
63346;SDS011;49472;49.880;8.650;2022-07-22T06:21:31;23.87;;;21.50;;
63346;SDS011;49472;49.880;8.650;2022-07-22T06:23:57;23.88;;;21.55;;
63346;SDS011;49472;49.880;8.650;2022-07-22T06:26:23;24.63;;;22.38;;
63346;SDS011;49472;49.880;8.650;2022-07-22T06:28:48;24.65;;;22.15;;
63346;SDS011;49472;49.880;8.650;2022-07-22T06:31:13;24.10;;;21.90;;
63346;SDS011;49472;49.880;8.650;2022-07-22T06:33:39;22.33;;;20.07;;
63346;SDS011;49472;49.880;8.650;2022-07-22T06:36:05;23.77;;;21.70;;
63346;SDS011;49472;49.880;8.650;2022-07-22T06:38:31;21.97;;;20.03;;
63346;SDS011;49472;49.880;8.650;2022-07-22T06:40:56;22.70;;;20.77;;
63346;SDS011;49472;49.880;8.650;2022-07-22T06:43:22;22.40;;;20.10;;
63346;SDS011;49472;49.880;8.650;2022-07-22T06:45:47;21.73;;;19.90;;
63346;SDS011;49472;49.880;8.650;2022-07-22T06:48:13;20.50;;;18.80;;
63346;SDS011;49472;49.880;8.650;2022-07-22T06:50:38;21.90;;;19.95;;
63346;SDS011;49472;49.880;8.650;2022-07-22T06:53:04;21.67;;;19.87;;
63346;SDS011;49472;49.880;8.650;2022-07-22T06:55:29;20.55;;;18.80;;
63346;SDS011;49472;49.880;8.650;2022-07-22T06:57:55;20.95;;;19.00;;
63346;SDS011;49472;49.880;8.650;2022-07-22T07:00:20;20.98;;;19.17;;
63346;SDS011;49472;49.880;8.650;2022-07-22T07:02:45;20.30;;;18.77;;
63346;SDS011;49472;49.880;8.650;2022-07-22T07:05:12;18.70;;;17.20;;
63346;SDS011;49472;49.880;8.650;2022-07-22T07:07:37;20.33;;;18.83;;
63346;SDS011;49472;49.880;8.650;2022-07-22T07:10:03;20.85;;;18.98;;
63346;SDS011;49472;49.880;8.650;2022-07-22T07:12:29;20.50;;;18.42;;
63346;SDS011;49472;49.880;8.650;2022-07-22T07:14:54;20.10;;;18.52;;
63346;SDS011;49472;49.880;8.650;2022-07-22T07:17:19;20.55;;;18.95;;
63346;SDS011;49472;49.880;8.650;2022-07-22T07:19:45;19.13;;;17.52;;
63346;SDS011;49472;49.880;8.650;2022-07-22T07:22:10;20.50;;;18.38;;
63346;SDS011;49472;49.880;8.650;2022-07-22T07:24:35;20.80;;;19.05;;
63346;SDS011;49472;49.880;8.650;2022-07-22T07:27:01;21.15;;;19.45;;
63346;SDS011;49472;49.880;8.650;2022-07-22T07:29:26;19.93;;;18.23;;
63346;SDS011;49472;49.880;8.650;2022-07-22T07:31:52;20.10;;;18.42;;
63346;SDS011;49472;49.880;8.650;2022-07-22T07:34:17;20.25;;;18.48;;
63346;SDS011;49472;49.880;8.650;2022-07-22T07:36:42;18.15;;;16.85;;
63346;SDS011;49472;49.880;8.650;2022-07-22T07:39:08;17.45;;;16.05;;
63346;SDS011;49472;49.880;8.650;2022-07-22T07:41:33;19.90;;;18.08;;
63346;SDS011;49472;49.880;8.650;2022-07-22T07:43:59;19.70;;;18.02;;
63346;SDS011;49472;49.880;8.650;2022-07-22T07:46:24;19.42;;;18.13;;
63346;SDS011;49472;49.880;8.650;2022-07-22T07:48:49;19.85;;;18.15;;
63346;SDS011;49472;49.880;8.650;2022-07-22T07:51:15;20.38;;;18.58;;
63346;SDS011;49472;49.880;8.650;2022-07-22T07:53:41;19.33;;;17.63;;
63346;SDS011;49472;49.880;8.650;2022-07-22T07:56:06;20.13;;;18.35;;
63346;SDS011;49472;49.880;8.650;2022-07-22T07:58:32;19.75;;;17.90;;
63346;SDS011;49472;49.880;8.650;2022-07-22T08:00:57;20.38;;;18.77;;
63346;SDS011;49472;49.880;8.650;2022-07-22T08:03:23;21.88;;;19.67;;
63346;SDS011;49472;49.880;8.650;2022-07-22T08:05:48;19.73;;;18.13;;
63346;SDS011;49472;49.880;8.650;2022-07-22T08:08:14;19.55;;;17.98;;
63346;SDS011;49472;49.880;8.650;2022-07-22T08:10:39;20.80;;;18.70;;
63346;SDS011;49472;49.880;8.650;2022-07-22T08:13:05;18.05;;;16.73;;
63346;SDS011;49472;49.880;8.650;2022-07-22T08:15:30;19.70;;;17.88;;
63346;SDS011;49472;49.880;8.650;2022-07-22T08:17:56;20.15;;;18.55;;
63346;SDS011;49472;49.880;8.650;2022-07-22T08:20:23;21.40;;;19.60;;
63346;SDS011;49472;49.880;8.650;2022-07-22T08:22:49;19.25;;;17.95;;
63346;SDS011;49472;49.880;8.650;2022-07-22T08:25:15;19.67;;;17.92;;
63346;SDS011;49472;49.880;8.650;2022-07-22T08:27:40;20.40;;;18.50;;
63346;SDS011;49472;49.880;8.650;2022-07-22T08:30:06;21.65;;;19.85;;
63346;SDS011;49472;49.880;8.650;2022-07-22T08:32:32;20.40;;;18.67;;
63346;SDS011;49472;49.880;8.650;2022-07-22T08:34:58;19.67;;;18.17;;
63346;SDS011;49472;49.880;8.650;2022-07-22T08:37:24;19.45;;;18.00;;
63346;SDS011;49472;49.880;8.650;2022-07-22T08:39:50;19.50;;;17.83;;
63346;SDS011;49472;49.880;8.650;2022-07-22T08:42:15;17.52;;;16.17;;
63346;SDS011;49472;49.880;8.650;2022-07-22T08:44:40;18.95;;;17.45;;
63346;SDS011;49472;49.880;8.650;2022-07-22T08:47:06;18.42;;;17.02;;
63346;SDS011;49472;49.880;8.650;2022-07-22T08:49:31;19.45;;;17.73;;
63346;SDS011;49472;49.880;8.650;2022-07-22T08:51:57;19.63;;;18.23;;
63346;SDS011;49472;49.880;8.650;2022-07-22T08:54:22;20.75;;;19.05;;
63346;SDS011;49472;49.880;8.650;2022-07-22T08:56:51;19.92;;;18.25;;
63346;SDS011;49472;49.880;8.650;2022-07-22T08:59:17;20.58;;;18.98;;
63346;SDS011;49472;49.880;8.650;2022-07-22T09:02:04;20.08;;;18.52;;
63346;SDS011;49472;49.880;8.650;2022-07-22T09:04:31;19.35;;;17.75;;
63346;SDS011;49472;49.880;8.650;2022-07-22T09:06:57;18.90;;;17.40;;
63346;SDS011;49472;49.880;8.650;2022-07-22T09:09:33;18.77;;;17.42;;
63346;SDS011;49472;49.880;8.650;2022-07-22T09:12:08;19.17;;;17.67;;
63346;SDS011;49472;49.880;8.650;2022-07-22T09:14:52;18.58;;;17.17;;
63346;SDS011;49472;49.880;8.650;2022-07-22T09:17:32;17.88;;;16.67;;
63346;SDS011;49472;49.880;8.650;2022-07-22T09:20:01;17.60;;;16.25;;
63346;SDS011;49472;49.880;8.650;2022-07-22T09:27:43;18.27;;;16.88;;
63346;SDS011;49472;49.880;8.650;2022-07-22T09:30:11;19.08;;;17.55;;
63346;SDS011;49472;49.880;8.650;2022-07-22T09:32:50;18.17;;;16.85;;
63346;SDS011;49472;49.880;8.650;2022-07-22T09:35:17;17.42;;;16.17;;
63346;SDS011;49472;49.880;8.650;2022-07-22T09:37:47;18.13;;;16.58;;
63346;SDS011;49472;49.880;8.650;2022-07-22T09:40:28;18.60;;;17.23;;
63346;SDS011;49472;49.880;8.650;2022-07-22T09:42:57;19.25;;;18.00;;
63346;SDS011;49472;49.880;8.650;2022-07-22T09:45:28;20.40;;;18.27;;
63346;SDS011;49472;49.880;8.650;2022-07-22T09:47:55;18.75;;;17.35;;
63346;SDS011;49472;49.880;8.650;2022-07-22T09:50:23;17.30;;;16.20;;
63346;SDS011;49472;49.880;8.650;2022-07-22T09:52:51;22.48;;;17.90;;
63346;SDS011;49472;49.880;8.650;2022-07-22T09:55:18;18.60;;;17.30;;
63346;SDS011;49472;49.880;8.650;2022-07-22T09:57:46;18.55;;;17.15;;
63346;SDS011;49472;49.880;8.650;2022-07-22T10:00:14;18.73;;;17.13;;
63346;SDS011;49472;49.880;8.650;2022-07-22T10:02:45;19.70;;;17.70;;
63346;SDS011;49472;49.880;8.650;2022-07-22T10:05:14;18.48;;;17.25;;
63346;SDS011;49472;49.880;8.650;2022-07-22T10:07:42;18.52;;;17.13;;
63346;SDS011;49472;49.880;8.650;2022-07-22T10:10:11;18.65;;;17.15;;
63346;SDS011;49472;49.880;8.650;2022-07-22T10:12:38;18.48;;;17.17;;
63346;SDS011;49472;49.880;8.650;2022-07-22T10:15:04;18.42;;;16.98;;
63346;SDS011;49472;49.880;8.650;2022-07-22T10:17:33;18.60;;;17.30;;
63346;SDS011;49472;49.880;8.650;2022-07-22T10:20:00;19.23;;;17.83;;
63346;SDS011;49472;49.880;8.650;2022-07-22T10:25:03;17.83;;;16.63;;
63346;SDS011;49472;49.880;8.650;2022-07-22T10:30:16;17.85;;;16.45;;
63346;SDS011;49472;49.880;8.650;2022-07-22T10:32:43;18.05;;;16.70;;
63346;SDS011;49472;49.880;8.650;2022-07-22T10:37:44;16.77;;;15.63;;
63346;SDS011;49472;49.880;8.650;2022-07-22T10:40:17;16.92;;;15.52;;
63346;SDS011;49472;49.880;8.650;2022-07-22T10:43:09;17.48;;;16.17;;
63346;SDS011;49472;49.880;8.650;2022-07-22T10:45:45;17.60;;;16.35;;
63346;SDS011;49472;49.880;8.650;2022-07-22T10:48:19;17.70;;;15.93;;
63346;SDS011;49472;49.880;8.650;2022-07-22T10:50:50;18.05;;;16.75;;
63346;SDS011;49472;49.880;8.650;2022-07-22T10:53:21;17.20;;;15.90;;
63346;SDS011;49472;49.880;8.650;2022-07-22T11:01:02;17.23;;;15.93;;
63346;SDS011;49472;49.880;8.650;2022-07-22T11:03:32;17.65;;;16.30;;
63346;SDS011;49472;49.880;8.650;2022-07-22T11:06:12;16.92;;;15.73;;
63346;SDS011;49472;49.880;8.650;2022-07-22T11:08:48;16.25;;;15.05;;
63346;SDS011;49472;49.880;8.650;2022-07-22T11:11:15;16.67;;;15.57;;
63346;SDS011;49472;49.880;8.650;2022-07-22T11:13:41;16.48;;;15.20;;
63346;SDS011;49472;49.880;8.650;2022-07-22T11:16:22;16.52;;;15.35;;
63346;SDS011;49472;49.880;8.650;2022-07-22T11:18:50;16.27;;;15.27;;
63346;SDS011;49472;49.880;8.650;2022-07-22T11:21:18;15.75;;;14.60;;
63346;SDS011;49472;49.880;8.650;2022-07-22T11:23:47;154.00;;;32.60;;
63346;SDS011;49472;49.880;8.650;2022-07-22T11:26:14;17.10;;;15.70;;
63346;SDS011;49472;49.880;8.650;2022-07-22T11:28:42;17.58;;;16.05;;
63346;SDS011;49472;49.880;8.650;2022-07-22T11:31:09;16.20;;;14.90;;
63346;SDS011;49472;49.880;8.650;2022-07-22T11:33:35;16.50;;;15.30;;
63346;SDS011;49472;49.880;8.650;2022-07-22T11:36:02;16.08;;;14.73;;
63346;SDS011;49472;49.880;8.650;2022-07-22T11:41:16;17.08;;;15.45;;
63346;SDS011;49472;49.880;8.650;2022-07-22T11:43:44;15.90;;;14.70;;
63346;SDS011;49472;49.880;8.650;2022-07-22T11:46:11;16.20;;;14.95;;
63346;SDS011;49472;49.880;8.650;2022-07-22T11:48:38;16.92;;;15.45;;
63346;SDS011;49472;49.880;8.650;2022-07-22T11:51:05;16.65;;;15.00;;
63346;SDS011;49472;49.880;8.650;2022-07-22T11:53:31;16.00;;;14.55;;
63346;SDS011;49472;49.880;8.650;2022-07-22T11:55:58;16.63;;;15.13;;
63346;SDS011;49472;49.880;8.650;2022-07-22T12:01:10;16.10;;;14.80;;
63346;SDS011;49472;49.880;8.650;2022-07-22T12:03:39;15.95;;;14.73;;
63346;SDS011;49472;49.880;8.650;2022-07-22T12:06:07;15.18;;;14.07;;
63346;SDS011;49472;49.880;8.650;2022-07-22T12:08:38;15.60;;;14.40;;
63346;SDS011;49472;49.880;8.650;2022-07-22T12:11:06;16.63;;;15.23;;
63346;SDS011;49472;49.880;8.650;2022-07-22T12:13:32;15.27;;;13.77;;
63346;SDS011;49472;49.880;8.650;2022-07-22T12:15:57;15.75;;;14.48;;
63346;SDS011;49472;49.880;8.650;2022-07-22T12:18:24;16.17;;;13.77;;
63346;SDS011;49472;49.880;8.650;2022-07-22T12:20:52;14.95;;;13.80;;
63346;SDS011;49472;49.880;8.650;2022-07-22T12:23:19;14.98;;;13.65;;
63346;SDS011;49472;49.880;8.650;2022-07-22T12:25:59;14.98;;;13.57;;
63346;SDS011;49472;49.880;8.650;2022-07-22T12:28:26;14.70;;;13.38;;
63346;SDS011;49472;49.880;8.650;2022-07-22T12:30:54;14.98;;;13.77;;
63346;SDS011;49472;49.880;8.650;2022-07-22T12:33:21;14.57;;;13.48;;
63346;SDS011;49472;49.880;8.650;2022-07-22T12:36:20;15.20;;;14.00;;
63346;SDS011;49472;49.880;8.650;2022-07-22T12:38:39;15.30;;;14.10;;
63346;SDS011;49472;49.880;8.650;2022-07-22T12:41:28;14.32;;;13.32;;
63346;SDS011;49472;49.880;8.650;2022-07-22T12:43:54;32.20;;;12.70;;
63346;SDS011;49472;49.880;8.650;2022-07-22T12:46:20;13.18;;;12.07;;
63346;SDS011;49472;49.880;8.650;2022-07-22T12:48:53;13.35;;;12.45;;
63346;SDS011;49472;49.880;8.650;2022-07-22T12:51:19;14.30;;;13.27;;
63346;SDS011;49472;49.880;8.650;2022-07-22T12:53:45;14.02;;;12.90;;
63346;SDS011;49472;49.880;8.650;2022-07-22T12:56:10;12.50;;;11.68;;
63346;SDS011;49472;49.880;8.650;2022-07-22T12:58:36;12.73;;;11.85;;
63346;SDS011;49472;49.880;8.650;2022-07-22T13:01:05;13.43;;;12.02;;
63346;SDS011;49472;49.880;8.650;2022-07-22T13:03:31;12.32;;;11.52;;
63346;SDS011;49472;49.880;8.650;2022-07-22T13:05:58;11.48;;;10.82;;
63346;SDS011;49472;49.880;8.650;2022-07-22T13:08:25;12.98;;;12.13;;
63346;SDS011;49472;49.880;8.650;2022-07-22T13:10:51;12.05;;;11.05;;
63346;SDS011;49472;49.880;8.650;2022-07-22T13:13:17;11.52;;;10.82;;
63346;SDS011;49472;49.880;8.650;2022-07-22T13:15:44;12.77;;;11.88;;
63346;SDS011;49472;49.880;8.650;2022-07-22T13:18:10;11.45;;;10.75;;
63346;SDS011;49472;49.880;8.650;2022-07-22T13:20:35;12.18;;;11.38;;
63346;SDS011;49472;49.880;8.650;2022-07-22T13:23:01;11.35;;;10.65;;
63346;SDS011;49472;49.880;8.650;2022-07-22T13:25:27;11.30;;;10.57;;
63346;SDS011;49472;49.880;8.650;2022-07-22T13:27:53;11.20;;;10.57;;
63346;SDS011;49472;49.880;8.650;2022-07-22T13:30:19;10.43;;;9.82;;
63346;SDS011;49472;49.880;8.650;2022-07-22T13:32:44;10.80;;;10.10;;
63346;SDS011;49472;49.880;8.650;2022-07-22T13:35:09;11.45;;;10.40;;
63346;SDS011;49472;49.880;8.650;2022-07-22T13:37:35;10.50;;;9.88;;
63346;SDS011;49472;49.880;8.650;2022-07-22T13:40:01;10.68;;;10.00;;
63346;SDS011;49472;49.880;8.650;2022-07-22T13:42:27;11.25;;;10.40;;
63346;SDS011;49472;49.880;8.650;2022-07-22T13:44:53;11.02;;;10.15;;
63346;SDS011;49472;49.880;8.650;2022-07-22T13:47:19;10.43;;;9.63;;
63346;SDS011;49472;49.880;8.650;2022-07-22T13:49:45;10.93;;;10.00;;
63346;SDS011;49472;49.880;8.650;2022-07-22T13:52:11;10.13;;;9.40;;
63346;SDS011;49472;49.880;8.650;2022-07-22T13:54:37;9.68;;;9.07;;
63346;SDS011;49472;49.880;8.650;2022-07-22T13:57:03;9.88;;;9.10;;
63346;SDS011;49472;49.880;8.650;2022-07-22T13:59:29;10.27;;;9.60;;
63346;SDS011;49472;49.880;8.650;2022-07-22T14:01:56;10.45;;;9.63;;
63346;SDS011;49472;49.880;8.650;2022-07-22T14:04:22;10.20;;;9.60;;
63346;SDS011;49472;49.880;8.650;2022-07-22T14:06:47;9.27;;;8.88;;
63346;SDS011;49472;49.880;8.650;2022-07-22T14:09:13;10.93;;;9.93;;
63346;SDS011;49472;49.880;8.650;2022-07-22T14:11:38;9.95;;;9.23;;
63346;SDS011;49472;49.880;8.650;2022-07-22T14:14:04;9.90;;;8.98;;
63346;SDS011;49472;49.880;8.650;2022-07-22T14:16:31;13.40;;;8.70;;
63346;SDS011;49472;49.880;8.650;2022-07-22T14:19:06;10.20;;;9.15;;
63346;SDS011;49472;49.880;8.650;2022-07-22T14:21:33;8.60;;;8.10;;
63346;SDS011;49472;49.880;8.650;2022-07-22T14:23:59;8.95;;;8.25;;
63346;SDS011;49472;49.880;8.650;2022-07-22T14:26:25;9.20;;;8.70;;
63346;SDS011;49472;49.880;8.650;2022-07-22T14:28:51;8.18;;;7.72;;
63346;SDS011;49472;49.880;8.650;2022-07-22T14:31:17;9.00;;;8.38;;
63346;SDS011;49472;49.880;8.650;2022-07-22T14:33:42;8.95;;;8.25;;
63346;SDS011;49472;49.880;8.650;2022-07-22T14:36:08;9.27;;;8.68;;
63346;SDS011;49472;49.880;8.650;2022-07-22T14:38:34;9.45;;;8.77;;
63346;SDS011;49472;49.880;8.650;2022-07-22T14:40:59;8.60;;;8.00;;
63346;SDS011;49472;49.880;8.650;2022-07-22T14:43:25;9.18;;;8.75;;